createdAt,value
2023-04-15T00:01:39.580Z,8.43
2023-04-15T00:04:06.880Z,9.25
2023-04-15T00:06:34.214Z,6.78
2023-04-15T00:09:01.795Z,6.28
2023-04-15T00:11:29.535Z,8.27
2023-04-15T00:13:56.766Z,6.90
2023-04-15T00:16:24.095Z,5.82
2023-04-15T00:18:51.714Z,8.13
2023-04-15T00:21:18.964Z,10.27
2023-04-15T00:23:49.743Z,9.40
2023-04-15T00:26:17.035Z,6.88
2023-04-15T00:28:44.842Z,8.38
2023-04-15T00:31:12.415Z,9.35
2023-04-15T00:33:40.792Z,7.18
2023-04-15T00:36:08.691Z,8.60
2023-04-15T00:38:39.045Z,6.32
2023-04-15T00:41:06.535Z,5.55
2023-04-15T00:43:33.730Z,7.00
2023-04-15T00:46:02.310Z,5.60
2023-04-15T00:48:30.845Z,6.65
2023-04-15T00:50:58.314Z,7.90
2023-04-15T00:53:25.808Z,10.88
2023-04-15T00:55:53.893Z,10.77
2023-04-15T00:58:21.254Z,7.22
2023-04-15T01:00:49.244Z,9.75
2023-04-15T01:03:16.729Z,4.85
2023-04-15T01:05:44.130Z,8.23
2023-04-15T01:08:11.391Z,9.38
2023-04-15T01:10:39.508Z,8.55
2023-04-15T01:13:06.822Z,8.73
2023-04-15T01:15:36.287Z,8.07
2023-04-15T01:18:03.659Z,7.00
2023-04-15T01:20:31.031Z,8.60
2023-04-15T01:23:01.330Z,6.18
2023-04-15T01:25:33.372Z,11.85
2023-04-15T01:28:00.814Z,10.30
2023-04-15T01:30:28.212Z,8.90
2023-04-15T01:32:56.116Z,5.75
2023-04-15T01:35:23.988Z,6.70
2023-04-15T01:37:52.485Z,5.47
2023-04-15T01:40:20.390Z,6.95
2023-04-15T01:42:47.630Z,8.45
2023-04-15T01:45:16.600Z,5.35
2023-04-15T01:47:43.812Z,7.00
2023-04-15T01:50:11.167Z,4.63
2023-04-15T01:52:38.686Z,7.97
2023-04-15T01:55:08.010Z,7.47
2023-04-15T01:57:35.266Z,7.75
2023-04-15T02:00:03.586Z,6.95
2023-04-15T02:02:40.899Z,6.20
2023-04-15T02:05:08.656Z,6.70
2023-04-15T02:07:37.918Z,5.57
2023-04-15T02:10:05.449Z,6.15
2023-04-15T02:12:32.627Z,4.97
2023-04-15T02:15:00.897Z,5.07
2023-04-15T02:17:28.286Z,8.70
2023-04-15T02:19:56.781Z,5.13
2023-04-15T02:22:25.306Z,7.30
2023-04-15T02:24:52.731Z,4.75
2023-04-15T02:27:20.109Z,6.60
2023-04-15T02:29:47.689Z,5.50
2023-04-15T02:32:15.004Z,6.07
2023-04-15T02:34:42.922Z,7.03
2023-04-15T02:37:12.705Z,4.30
2023-04-15T02:39:39.974Z,4.63
2023-04-15T02:42:07.315Z,7.23
2023-04-15T02:44:36.368Z,5.40
2023-04-15T02:47:06.985Z,8.80
2023-04-15T02:49:34.379Z,6.13
2023-04-15T02:52:01.618Z,8.87
2023-04-15T02:54:28.989Z,5.57
2023-04-15T02:56:56.731Z,6.50
2023-04-15T02:59:24.051Z,5.33
2023-04-15T03:01:51.645Z,8.30
2023-04-15T03:04:19.053Z,6.13
2023-04-15T03:06:46.452Z,4.93
2023-04-15T03:09:13.945Z,6.80
2023-04-15T03:11:42.099Z,7.53
2023-04-15T03:14:10.521Z,7.83
2023-04-15T03:16:42.021Z,8.00
2023-04-15T03:19:09.247Z,7.47
2023-04-15T03:21:36.582Z,7.57
2023-04-15T03:24:04.012Z,6.67
2023-04-15T03:26:32.117Z,4.43
2023-04-15T03:29:08.421Z,3.67
2023-04-15T03:31:35.813Z,9.37
2023-04-15T03:34:03.082Z,4.28
2023-04-15T03:36:33.115Z,5.43
2023-04-15T03:39:02.179Z,5.20
2023-04-15T03:41:29.705Z,8.93
2023-04-15T03:43:57.435Z,6.00
2023-04-15T03:46:24.678Z,8.83
2023-04-15T03:48:51.989Z,7.33
2023-04-15T03:51:19.293Z,5.47
2023-04-15T03:53:46.640Z,7.10
2023-04-15T03:56:13.859Z,5.03
2023-04-15T03:58:41.392Z,7.47
2023-04-15T04:01:09.623Z,7.50
2023-04-15T04:03:37.950Z,7.77
2023-04-15T04:06:05.624Z,7.03
2023-04-15T04:08:32.898Z,8.53
2023-04-15T04:11:00.174Z,10.80
2023-04-15T04:13:27.445Z,10.07
2023-04-15T04:15:54.803Z,9.67
2023-04-15T04:18:22.095Z,12.17
2023-04-15T04:20:49.447Z,11.87
2023-04-15T04:23:16.673Z,8.00
2023-04-15T04:25:43.872Z,8.33
2023-04-15T04:28:11.643Z,7.87
2023-04-15T04:30:38.943Z,7.07
2023-04-15T04:33:07.216Z,6.33
2023-04-15T04:35:37.554Z,7.83
2023-04-15T04:38:04.947Z,9.23
2023-04-15T04:40:32.218Z,8.73
2023-04-15T04:42:59.910Z,7.90
2023-04-15T04:45:27.192Z,9.50
2023-04-15T04:47:54.454Z,10.70
2023-04-15T04:50:21.764Z,9.73
2023-04-15T04:52:48.968Z,10.43
2023-04-15T04:55:16.701Z,11.70
2023-04-15T04:57:44.079Z,12.30
2023-04-15T05:00:12.611Z,9.83
2023-04-15T05:02:41.693Z,11.63
2023-04-15T05:05:09.765Z,9.03
2023-04-15T05:07:37.451Z,10.23
2023-04-15T05:10:05.291Z,11.30
2023-04-15T05:12:32.635Z,9.37
2023-04-15T05:14:59.830Z,9.97
2023-04-15T05:17:27.509Z,9.50
2023-04-15T05:19:54.814Z,12.77
2023-04-15T05:22:22.124Z,6.73
2023-04-15T05:24:49.499Z,11.80
2023-04-15T05:27:16.898Z,8.10
2023-04-15T05:29:44.159Z,7.73
2023-04-15T05:32:11.435Z,8.57
2023-04-15T05:34:38.697Z,7.73
2023-04-15T05:37:06.080Z,12.83
2023-04-15T05:39:33.968Z,12.90
2023-04-15T05:42:01.263Z,8.60
2023-04-15T05:44:28.526Z,8.80
2023-04-15T05:46:55.815Z,9.80
2023-04-15T05:49:23.169Z,8.23
2023-04-15T05:51:50.600Z,11.03
2023-04-15T05:54:20.128Z,9.50
2023-04-15T05:56:47.664Z,16.03
2023-04-15T05:59:15.091Z,12.17
2023-04-15T06:01:42.848Z,7.77
2023-04-15T06:04:10.226Z,9.57
2023-04-15T06:06:38.342Z,8.17
2023-04-15T06:09:05.579Z,10.13
2023-04-15T06:11:32.997Z,7.87
2023-04-15T06:14:00.215Z,8.50
2023-04-15T06:16:27.677Z,6.27
2023-04-15T06:18:54.894Z,14.37
2023-04-15T06:21:22.200Z,7.03
2023-04-15T06:23:49.992Z,12.83
2023-04-15T06:26:17.342Z,10.50
2023-04-15T06:28:44.584Z,9.10
2023-04-15T06:31:12.002Z,11.73
2023-04-15T06:33:39.810Z,10.33
2023-04-15T06:36:11.543Z,8.50
2023-04-15T06:38:39.119Z,13.07
2023-04-15T06:41:06.495Z,6.13
2023-04-15T06:43:34.368Z,8.67
2023-04-15T06:46:02.381Z,11.00
2023-04-15T06:48:29.775Z,7.30
2023-04-15T06:50:58.204Z,7.07
2023-04-15T06:53:28.223Z,6.70
2023-04-15T06:55:55.596Z,6.13
2023-04-15T06:58:24.093Z,9.90
2023-04-15T07:00:52.058Z,8.57
2023-04-15T07:03:19.554Z,9.15
2023-04-15T07:05:46.798Z,7.17
2023-04-15T07:08:14.038Z,7.72
2023-04-15T07:10:41.452Z,6.80
2023-04-15T07:13:08.914Z,5.37
2023-04-15T07:15:36.224Z,9.73
2023-04-15T07:18:03.624Z,8.45
2023-04-15T07:20:32.448Z,7.50
2023-04-15T07:22:59.737Z,8.17
2023-04-15T07:25:27.062Z,7.53
2023-04-15T07:27:54.397Z,9.18
2023-04-15T07:30:21.700Z,7.47
2023-04-15T07:32:49.169Z,9.93
2023-04-15T07:35:16.427Z,9.52
2023-04-15T07:37:43.681Z,9.77
2023-04-15T07:40:11.875Z,6.43
2023-04-15T07:42:41.166Z,11.43
2023-04-15T07:45:09.579Z,9.63
2023-04-15T07:47:37.105Z,9.68
2023-04-15T07:50:04.729Z,11.85
2023-04-15T07:52:32.384Z,9.75
2023-04-15T07:54:59.589Z,11.07
2023-04-15T07:57:26.912Z,6.68
2023-04-15T07:59:54.180Z,6.72
2023-04-15T08:02:22.444Z,10.32
2023-04-15T08:04:49.904Z,8.63
2023-04-15T08:07:18.153Z,9.48
2023-04-15T08:09:46.362Z,10.30
2023-04-15T08:12:13.753Z,9.38
2023-04-15T08:14:41.207Z,4.32
2023-04-15T08:17:09.393Z,6.60
2023-04-15T08:19:36.556Z,4.32
2023-04-15T08:22:03.922Z,8.75
2023-04-15T08:24:32.450Z,3.95
2023-04-15T08:26:59.962Z,10.73
2023-04-15T08:29:27.380Z,9.57
2023-04-15T08:31:55.194Z,5.18
2023-04-15T08:34:22.905Z,4.70
2023-04-15T08:36:50.315Z,5.00
2023-04-15T08:39:18.100Z,4.50
2023-04-15T08:42:00.453Z,2.88
2023-04-15T08:44:30.790Z,3.55
2023-04-15T08:47:02.643Z,3.38
2023-04-15T08:49:30.718Z,6.25
2023-04-15T08:52:00.356Z,5.47
2023-04-15T08:54:30.979Z,5.10
2023-04-15T08:56:58.654Z,4.75
2023-04-15T08:59:26.359Z,3.95
2023-04-15T09:01:55.357Z,4.18
2023-04-15T09:04:22.584Z,4.82
2023-04-15T09:06:49.829Z,3.30
2023-04-15T09:09:17.087Z,2.75
2023-04-15T09:11:44.455Z,6.22
2023-04-15T09:14:12.137Z,6.05
2023-04-15T09:17:03.108Z,2.90
2023-04-15T09:19:31.746Z,6.13
2023-04-15T09:21:59.921Z,4.28
2023-04-15T09:24:38.703Z,2.72
2023-04-15T09:27:06.873Z,3.08
2023-04-15T09:29:34.263Z,6.47
2023-04-15T09:32:12.649Z,4.35
2023-04-15T09:34:49.478Z,2.97
2023-04-15T09:37:31.563Z,2.03
2023-04-15T09:39:59.671Z,5.43
2023-04-15T09:42:28.642Z,2.95
2023-04-15T09:44:56.195Z,4.88
2023-04-15T09:47:31.497Z,1.90
2023-04-15T09:50:00.423Z,4.85
2023-04-15T09:52:28.782Z,3.00
2023-04-15T09:54:59.901Z,3.22
2023-04-15T09:57:36.363Z,3.30
2023-04-15T10:00:05.303Z,3.13
2023-04-15T10:02:34.502Z,4.78
2023-04-15T10:05:03.190Z,2.60
2023-04-15T10:07:31.095Z,2.72
2023-04-15T10:09:59.905Z,4.43
2023-04-15T10:12:29.444Z,4.57
2023-04-15T10:15:04.982Z,4.35
2023-04-15T10:17:35.348Z,4.28
2023-04-15T10:20:05.166Z,4.47
2023-04-15T10:22:33.295Z,5.53
2023-04-15T10:25:02.698Z,3.75
2023-04-15T10:27:30.459Z,3.88
2023-04-15T10:29:58.438Z,6.15
2023-04-15T10:32:26.348Z,3.38
2023-04-15T10:34:54.786Z,2.88
2023-04-15T10:37:23.634Z,5.90
2023-04-15T10:39:51.021Z,4.60
2023-04-15T10:42:19.746Z,4.28
2023-04-15T10:44:52.417Z,5.25
2023-04-15T10:47:22.205Z,5.28
2023-04-15T10:49:51.669Z,3.92
2023-04-15T10:52:24.738Z,2.45
2023-04-15T10:55:16.360Z,2.50
2023-04-15T10:57:45.065Z,5.25
2023-04-15T11:00:14.753Z,3.42
2023-04-15T11:02:52.032Z,2.47
2023-04-15T11:05:21.470Z,2.15
2023-04-15T11:07:56.319Z,2.30
2023-04-15T11:10:26.856Z,4.25
2023-04-15T11:12:58.349Z,2.55
2023-04-15T11:15:32.564Z,2.42
2023-04-15T11:18:25.083Z,3.35
2023-04-15T11:21:04.177Z,3.45
2023-04-15T11:23:40.800Z,4.38
2023-04-15T11:26:12.457Z,3.25
2023-04-15T11:28:42.133Z,2.78
2023-04-15T11:31:20.138Z,2.42
2023-04-15T11:33:55.974Z,3.10
2023-04-15T11:36:27.913Z,2.30
2023-04-15T11:38:55.875Z,2.75
2023-04-15T11:41:26.207Z,2.50
2023-04-15T11:43:53.506Z,4.15
2023-04-15T11:46:22.725Z,3.15
2023-04-15T11:48:50.182Z,2.30
2023-04-15T11:51:17.558Z,2.35
2023-04-15T11:53:47.148Z,4.07
2023-04-15T11:56:22.648Z,2.67
2023-04-15T11:58:59.760Z,2.08
2023-04-15T12:01:35.198Z,3.25
2023-04-15T12:04:04.283Z,4.07
2023-04-15T12:06:36.825Z,3.67
2023-04-15T12:09:07.115Z,4.15
2023-04-15T12:11:47.383Z,3.60
2023-04-15T12:14:28.434Z,4.18
2023-04-15T12:17:00.399Z,4.57
2023-04-15T12:19:32.463Z,4.10
2023-04-15T12:22:02.395Z,5.00
2023-04-15T12:24:33.151Z,8.52
2023-04-15T12:27:05.545Z,5.82
2023-04-15T12:29:35.026Z,4.88
2023-04-15T12:32:20.774Z,5.38
2023-04-15T12:34:53.064Z,4.13
2023-04-15T12:37:21.042Z,6.07
2023-04-15T12:39:49.986Z,4.88
2023-04-15T12:42:18.348Z,5.63
2023-04-15T12:44:45.842Z,6.47
2023-04-15T12:47:13.793Z,4.20
2023-04-15T12:49:41.408Z,4.75
2023-04-15T12:52:09.165Z,5.40
2023-04-15T12:54:36.639Z,6.97
2023-04-15T12:57:06.884Z,4.30
2023-04-15T12:59:35.424Z,4.57
2023-04-15T13:02:04.506Z,3.30
2023-04-15T13:04:32.157Z,4.07
2023-04-15T13:06:59.710Z,4.63
2023-04-15T13:09:27.248Z,5.10
2023-04-15T13:11:54.813Z,4.65
2023-04-15T13:14:22.658Z,4.15
2023-04-15T13:16:50.637Z,3.55
2023-04-15T13:19:17.957Z,4.30
2023-04-15T13:21:45.360Z,4.22
2023-04-15T13:24:12.702Z,3.05
2023-04-15T13:26:39.964Z,9.13
2023-04-15T13:29:07.294Z,5.63
2023-04-15T13:31:34.549Z,3.72
2023-04-15T13:34:02.116Z,5.38
2023-04-15T13:36:29.623Z,4.85
2023-04-15T13:38:57.818Z,3.03
2023-04-15T13:41:25.312Z,4.72
2023-04-15T13:43:52.651Z,4.50
2023-04-15T13:46:20.099Z,2.92
2023-04-15T13:48:47.769Z,3.70
2023-04-15T13:51:15.117Z,5.22
2023-04-15T13:53:42.366Z,6.20
2023-04-15T13:56:10.297Z,3.83
2023-04-15T13:58:38.316Z,12.23
2023-04-15T14:01:07.264Z,6.60
2023-04-15T14:03:36.227Z,5.68
2023-04-15T14:06:05.230Z,4.72
2023-04-15T14:08:35.796Z,4.10
2023-04-15T14:11:04.772Z,3.08
2023-04-15T14:13:32.232Z,3.30
2023-04-15T14:15:59.632Z,3.35
2023-04-15T14:18:27.318Z,4.28
2023-04-15T14:20:54.646Z,3.97
2023-04-15T14:23:23.434Z,3.33
2023-04-15T14:25:51.891Z,3.55
2023-04-15T14:28:19.354Z,3.83
2023-04-15T14:30:46.756Z,3.63
2023-04-15T14:33:14.235Z,3.92
2023-04-15T14:35:41.615Z,4.80
2023-04-15T14:38:13.379Z,4.78
2023-04-15T14:40:41.255Z,5.70
2023-04-15T14:43:08.555Z,6.85
2023-04-15T14:45:36.399Z,6.53
2023-04-15T14:48:04.248Z,6.15
2023-04-15T14:50:31.869Z,6.38
2023-04-15T14:52:59.456Z,6.95
2023-04-15T14:55:26.877Z,6.50
2023-04-15T14:57:54.184Z,6.20
2023-04-15T15:00:21.537Z,8.00
2023-04-15T15:02:49.096Z,4.95
2023-04-15T15:05:19.736Z,4.70
2023-04-15T15:07:48.593Z,4.30
2023-04-15T15:10:16.047Z,5.85
2023-04-15T15:12:43.336Z,11.07
2023-04-15T15:15:25.228Z,11.02
2023-04-15T15:17:56.361Z,7.00
2023-04-15T15:20:25.030Z,8.02
2023-04-15T15:22:52.465Z,9.43
2023-04-15T15:25:19.769Z,13.95
2023-04-15T15:27:47.153Z,10.73
2023-04-15T15:30:14.690Z,13.02
2023-04-15T15:32:43.196Z,9.98
2023-04-15T15:35:11.035Z,7.53
2023-04-15T15:37:38.825Z,8.35
2023-04-15T15:40:07.104Z,8.57
2023-04-15T15:42:34.849Z,12.05
2023-04-15T15:45:03.907Z,8.73
2023-04-15T15:47:31.297Z,7.47
2023-04-15T15:49:59.878Z,6.85
2023-04-15T15:52:27.479Z,6.07
2023-04-15T15:54:54.849Z,9.07
2023-04-15T15:57:22.097Z,7.57
2023-04-15T15:59:50.073Z,6.93
2023-04-15T16:02:18.681Z,6.28
2023-04-15T16:04:46.414Z,6.03
2023-04-15T16:07:15.376Z,7.82
2023-04-15T16:09:42.767Z,6.30
2023-04-15T16:12:10.316Z,7.78
2023-04-15T16:14:37.701Z,12.07
2023-04-15T16:17:04.955Z,8.05
2023-04-15T16:19:32.322Z,8.95
2023-04-15T16:22:01.300Z,10.13
2023-04-15T16:24:29.791Z,7.30
2023-04-15T16:26:59.274Z,7.25
2023-04-15T16:29:26.755Z,7.88
2023-04-15T16:31:55.763Z,5.82
2023-04-15T16:34:23.211Z,7.53
2023-04-15T16:36:50.537Z,8.60
2023-04-15T16:39:17.910Z,7.90
2023-04-15T16:41:45.488Z,7.45
2023-04-15T16:44:12.773Z,7.40
2023-04-15T16:46:41.074Z,5.75
2023-04-15T16:49:08.732Z,5.57
2023-04-15T16:51:36.004Z,8.82
2023-04-15T16:54:03.324Z,6.25
2023-04-15T16:56:30.751Z,8.43
2023-04-15T16:58:58.098Z,5.68
2023-04-15T17:01:25.674Z,6.57
2023-04-15T17:03:55.911Z,5.97
2023-04-15T17:06:23.693Z,6.40
2023-04-15T17:08:51.550Z,5.88
2023-04-15T17:11:19.517Z,7.55
2023-04-15T17:13:47.461Z,7.78
2023-04-15T17:16:14.849Z,4.13
2023-04-15T17:18:42.124Z,6.20
2023-04-15T17:21:09.372Z,6.03
2023-04-15T17:23:36.624Z,4.13
2023-04-15T17:26:03.950Z,4.47
2023-04-15T17:28:31.206Z,4.50
2023-04-15T17:30:58.459Z,4.97
2023-04-15T17:34:00.732Z,3.42
2023-04-15T17:36:14.453Z,5.13
2023-04-15T17:38:41.733Z,3.90
2023-04-15T17:41:09.046Z,3.88
2023-04-15T17:43:36.305Z,5.88
2023-04-15T17:46:03.646Z,4.47
2023-04-15T17:48:30.969Z,4.25
2023-04-15T17:51:01.113Z,4.65
2023-04-15T17:53:29.471Z,3.67
2023-04-15T17:55:58.211Z,4.65
2023-04-15T17:58:27.082Z,6.30
2023-04-15T18:00:54.441Z,5.85
2023-04-15T18:03:22.129Z,6.53
2023-04-15T18:05:49.566Z,3.25
2023-04-15T18:08:16.966Z,5.97
2023-04-15T18:10:44.351Z,4.28
2023-04-15T18:13:11.643Z,7.05
2023-04-15T18:15:38.979Z,3.45
2023-04-15T18:18:06.331Z,6.68
2023-04-15T18:20:33.586Z,4.68
2023-04-15T18:23:00.906Z,6.90
2023-04-15T18:25:29.961Z,4.75
2023-04-15T18:27:57.429Z,3.50
2023-04-15T18:30:24.633Z,6.45
2023-04-15T18:32:52.040Z,5.30
2023-04-15T18:35:20.603Z,4.45
2023-04-15T18:37:47.926Z,5.47
2023-04-15T18:40:16.208Z,9.25
2023-04-15T18:42:43.498Z,5.75
2023-04-15T18:45:11.050Z,8.77
2023-04-15T18:47:38.586Z,9.70
2023-04-15T18:50:07.213Z,6.90
2023-04-15T18:52:34.490Z,8.18
2023-04-15T18:55:03.274Z,8.57
2023-04-15T18:57:35.897Z,6.85
2023-04-15T19:00:05.604Z,7.30
2023-04-15T19:02:33.378Z,7.93
2023-04-15T19:05:04.043Z,6.15
2023-04-15T19:07:31.995Z,6.90
2023-04-15T19:09:59.333Z,11.55
2023-04-15T19:12:26.914Z,6.15
2023-04-15T19:14:54.240Z,7.78
2023-04-15T19:17:21.664Z,8.50
2023-04-15T19:19:49.124Z,9.27
2023-04-15T19:22:16.685Z,6.50
2023-04-15T19:24:44.182Z,6.32
2023-04-15T19:27:11.675Z,6.40
2023-04-15T19:29:38.979Z,5.13
2023-04-15T19:32:06.479Z,12.00
2023-04-15T19:34:34.154Z,7.40
2023-04-15T19:37:02.269Z,9.13
2023-04-15T19:39:30.395Z,8.57
2023-04-15T19:41:58.902Z,10.30
2023-04-15T19:44:26.265Z,8.65
2023-04-15T19:46:56.805Z,7.63
2023-04-15T19:49:26.531Z,9.95
2023-04-15T19:51:53.880Z,8.10
2023-04-15T19:54:21.249Z,9.52
2023-04-15T19:56:48.808Z,8.45
2023-04-15T19:59:16.194Z,12.02
2023-04-15T20:01:43.647Z,13.88
2023-04-15T20:04:10.968Z,8.75
2023-04-15T20:06:38.624Z,8.48
2023-04-15T20:09:06.528Z,9.38
2023-04-15T20:12:06.133Z,9.18
2023-04-15T20:14:22.518Z,6.07
2023-04-15T20:16:49.830Z,7.93
2023-04-15T20:19:17.687Z,7.80
2023-04-15T20:21:45.462Z,5.55
2023-04-15T20:24:12.817Z,8.10
2023-04-15T20:26:40.206Z,12.02
2023-04-15T20:29:07.799Z,8.18
2023-04-15T20:31:36.260Z,5.72
2023-04-15T20:34:04.301Z,5.47
2023-04-15T20:36:31.922Z,6.00
2023-04-15T20:38:59.224Z,9.63
2023-04-15T20:41:26.547Z,10.95
2023-04-15T20:43:53.955Z,7.88
2023-04-15T20:46:22.018Z,7.15
2023-04-15T20:48:50.055Z,9.13
2023-04-15T20:51:17.582Z,6.53
2023-04-15T20:53:44.995Z,14.02
2023-04-15T20:56:12.355Z,9.13
2023-04-15T20:58:39.748Z,6.70
2023-04-15T21:01:07.201Z,8.45
2023-04-15T21:03:34.893Z,9.35
2023-04-15T21:06:02.465Z,9.40
2023-04-15T21:08:30.490Z,7.47
2023-04-15T21:10:57.912Z,10.68
2023-04-15T21:13:25.243Z,10.00
2023-04-15T21:15:54.280Z,12.90
2023-04-15T21:18:22.454Z,15.15
2023-04-15T21:21:02.559Z,21.95
2023-04-15T21:23:30.689Z,12.85
2023-04-15T21:25:59.016Z,14.88
2023-04-15T21:28:28.123Z,18.75
2023-04-15T21:30:56.908Z,11.20
2023-04-15T21:33:26.874Z,14.57
2023-04-15T21:35:54.709Z,11.75
2023-04-15T21:38:23.262Z,9.93
2023-04-15T21:40:51.399Z,14.10
2023-04-15T21:43:21.605Z,9.25
2023-04-15T21:46:22.344Z,11.65
2023-04-15T21:48:39.298Z,9.70
2023-04-15T21:51:06.854Z,12.13
2023-04-15T21:53:34.155Z,9.45
2023-04-15T21:56:02.405Z,9.35
2023-04-15T21:58:29.945Z,12.38
2023-04-15T22:01:00.470Z,9.55
2023-04-15T22:03:34.042Z,9.75
2023-04-15T22:06:05.042Z,7.47
2023-04-15T22:08:41.235Z,11.60
2023-04-15T22:11:26.401Z,8.73
2023-04-15T22:13:54.291Z,10.98
2023-04-15T22:16:21.752Z,7.10
2023-04-15T22:18:49.283Z,11.88
2023-04-15T22:21:16.651Z,11.95
2023-04-15T22:23:48.297Z,5.68
2023-04-15T22:26:15.824Z,8.73
2023-04-15T22:28:43.449Z,12.60
2023-04-15T22:31:11.278Z,8.20
2023-04-15T22:33:38.966Z,9.93
2023-04-15T22:36:06.601Z,8.23
2023-04-15T22:38:33.966Z,12.52
2023-04-15T22:41:01.629Z,8.05
2023-04-15T22:43:28.952Z,8.38
2023-04-15T22:45:56.661Z,7.68
2023-04-15T22:48:24.160Z,8.73
2023-04-15T22:50:51.562Z,11.43
2023-04-15T22:53:19.138Z,10.13
2023-04-15T22:55:49.494Z,8.80
2023-04-15T22:58:18.284Z,12.15
2023-04-15T23:00:46.238Z,9.07
2023-04-15T23:03:13.906Z,11.43
2023-04-15T23:05:42.086Z,10.98
2023-04-15T23:08:09.396Z,16.67
2023-04-15T23:10:39.844Z,12.48
2023-04-15T23:13:07.221Z,11.97
2023-04-15T23:15:34.452Z,11.48
2023-04-15T23:18:02.377Z,13.45
2023-04-15T23:20:30.315Z,9.77
2023-04-15T23:22:57.595Z,9.83
2023-04-15T23:25:24.933Z,10.27
2023-04-15T23:27:52.203Z,11.50
2023-04-15T23:30:19.497Z,14.32
2023-04-15T23:32:46.829Z,13.00
2023-04-15T23:35:14.178Z,11.15
2023-04-15T23:37:41.419Z,14.35
2023-04-15T23:40:09.190Z,11.60
2023-04-15T23:42:36.495Z,18.48
2023-04-15T23:45:04.129Z,13.60
2023-04-15T23:47:31.435Z,13.40
2023-04-15T23:49:58.713Z,9.10
2023-04-15T23:52:26.001Z,11.60
2023-04-15T23:54:53.365Z,13.80
2023-04-15T23:57:20.691Z,10.53
2023-04-15T23:59:47.978Z,14.70
